Huddy, KY (41535)

9:21 PM EST on February 08, 2016 (GMT -0500)
West Williamson, WV | | Change Station
CLOSE
Current Station
Personal Weather Station
Location: Williamson, WV
Elevation: 682 ft
Nearby Weather Stations
Active Advisory: Winter Weather Advisory

Elev 682 ft 37.68 °N, 82.29 °W | Updated 6 seconds ago

Snow
Snow
35.4 °F
Feels Like 35 °F
N
0.0
Wind Variable Wind from West
Gusts 0.0 mph

Today
High -- | Low -- °F
--% Chance of Precip.
Yesterday
High -- | Low -- °F
Precip. -- in
Pressure 29.70 in
Visibility 10.0 miles
Clouds Overcast 1100 ft
Windchill 35 °F
Dew Point 34 °F
Humidity 95%
Rainfall 0.05 in
Snow Depth Not available.
7:26 AM 6:00 PM
New Moon, 0% visible
METAR KSJS 090215Z AUTO 00000KT 10SM -DZ OVC011 00/00 A2970 RMK AO2 T00001002
Pressure 29.70 in
Visibility 10.0 miles
Clouds Overcast 1100 ft
Windchill 35 °F
Dew Point 34 °F
Humidity 95%
Rainfall 0.05 in
Snow Depth Not available.
7:26 AM 6:00 PM
New Moon, 0% visible
METAR KSJS 090215Z AUTO 00000KT 10SM -DZ OVC011 00/00 A2970 RMK AO2 T00001002

10-Day Weather Forecast

Almanac

Astronomy

Feb. 08, 2016 Rise Set
Actual Time
Civil Twilight
Nautical Twilight
Astronomical Twilight
Moon
Length of Visible Light
Length of Day
Tomorrow will be .
, % of the Moon is Illuminated

Today's Extremes

State Highs State Lows

Community

WunderPhotos

Upload Photos

1,891,527 photos uploaded!

WunderBlog® & News

Nearby

Air Quality

  Air Quality AQ Index Pollutant
Not available.

Snow Depth

Station Depth Elevation

Earthquake Activity

City Distance Mag. Time & Date
Minimum magnitude displayed is 2.5.

Coastal Water Temperatures

Place Temperature

Stations

Nearby Weather Stations

Station Location Temp. Windchill Dew Point Humidity Wind Precip. Elev Updated Type
                   

Watches & Warnings

Winter Weather Advisory
Issued: 6:35 PM EST Feb. 8, 2016 – National Weather Service

... Winter Weather Advisory now in effect until 10 am EST
Wednesday...

* periods of snow showers will continue through Tuesday night.
Snow showers will then taper off on Wednesday.

* Light snow will accumulate over a prolonged period... with
totals by Wednesday morning in the 2 to 4 inch range for most
areas. Above 2500 feet... localized accumulations around 6 inches
will be possible.

* Roads and walkways will become slippery... especially those
which are untreated. Localized heavy snow showers may also bring
greatly reduced visibility at times.

Precautionary/preparedness actions...

A Winter Weather Advisory for snow means that periods of snow
will cause primarily travel difficulties. Be prepared for snow
covered roads and limited visibilities... and use caution while
driving.